createdAt,value
2023-01-20T00:01:56.025Z,34.30
2023-01-20T00:04:42.680Z,34.70
2023-01-20T00:07:29.265Z,34.60
2023-01-20T00:10:15.638Z,34.10
2023-01-20T00:13:02.058Z,34.20
2023-01-20T00:15:48.725Z,40.10
2023-01-20T00:18:35.535Z,41.20
2023-01-20T00:21:22.360Z,38.60
2023-01-20T00:24:08.933Z,35.10
2023-01-20T00:26:55.398Z,37.50
2023-01-20T00:29:44.297Z,49.30
2023-01-20T00:32:30.675Z,73.00
2023-01-20T00:35:17.528Z,55.80
2023-01-20T00:38:03.566Z,62.70
2023-01-20T00:40:56.211Z,67.80
2023-01-20T00:43:43.349Z,50.80
2023-01-20T00:46:30.047Z,50.50
2023-01-20T00:49:16.244Z,52.00
2023-01-20T00:52:02.805Z,40.70
2023-01-20T00:54:49.346Z,44.40
2023-01-20T00:57:35.466Z,41.20
2023-01-20T01:00:21.733Z,39.60
2023-01-20T01:03:10.261Z,37.30
2023-01-20T01:06:10.598Z,38.10
2023-01-20T01:08:57.206Z,35.30
2023-01-20T01:11:43.633Z,33.80
2023-01-20T01:14:31.853Z,32.00
2023-01-20T01:17:18.457Z,33.80
2023-01-20T01:20:05.975Z,28.60
2023-01-20T01:22:52.306Z,31.30
2023-01-20T01:25:39.018Z,31.20
2023-01-20T01:28:26.537Z,33.30
2023-01-20T01:31:12.946Z,31.00
2023-01-20T01:33:59.516Z,28.20
2023-01-20T01:36:46.204Z,25.10
2023-01-20T01:39:32.703Z,25.10
2023-01-20T01:42:23.706Z,31.10
2023-01-20T01:45:10.008Z,31.90
2023-01-20T01:48:03.576Z,31.50
2023-01-20T01:50:54.577Z,33.30
2023-01-20T01:53:44.351Z,29.20
2023-01-20T01:56:31.126Z,31.10
2023-01-20T01:59:18.332Z,32.10
2023-01-20T02:02:04.774Z,34.80
2023-01-20T02:04:51.428Z,30.70
2023-01-20T02:07:37.974Z,31.50
2023-01-20T02:10:24.155Z,31.90
2023-01-20T02:13:10.516Z,35.40
2023-01-20T02:16:09.607Z,38.10
2023-01-20T02:19:16.789Z,37.00
2023-01-20T02:22:06.663Z,37.80
2023-01-20T02:25:00.793Z,39.60
2023-01-20T02:28:02.284Z,35.60
2023-01-20T02:31:06.285Z,38.10
2023-01-20T02:34:03.569Z,37.50
2023-01-20T02:36:58.539Z,36.60
2023-01-20T02:39:53.554Z,36.80
2023-01-20T02:42:46.894Z,37.10
2023-01-20T02:46:09.526Z,36.00
2023-01-20T02:49:03.753Z,30.80
2023-01-20T02:51:54.366Z,35.60
2023-01-20T02:54:42.825Z,39.00
2023-01-20T02:57:32.185Z,42.60
2023-01-20T03:00:33.082Z,47.90
2023-01-20T03:03:25.458Z,49.10
2023-01-20T03:06:18.748Z,53.70
2023-01-20T03:09:11.420Z,47.60
2023-01-20T03:12:01.672Z,50.60
2023-01-20T03:14:49.882Z,49.70
2023-01-20T03:17:36.547Z,49.30
2023-01-20T03:20:23.188Z,46.00
2023-01-20T03:23:09.985Z,47.70
2023-01-20T03:25:56.665Z,46.50
2023-01-20T03:28:44.908Z,44.80
2023-01-20T03:31:39.832Z,45.40
2023-01-20T03:34:28.665Z,42.30
2023-01-20T03:37:16.122Z,43.80
2023-01-20T03:40:02.733Z,43.90
2023-01-20T03:42:59.178Z,43.40
2023-01-20T03:46:04.176Z,41.40
2023-01-20T03:48:53.823Z,42.20
2023-01-20T03:51:51.083Z,42.10
2023-01-20T03:54:44.023Z,27.00
2023-01-20T03:57:37.439Z,31.00
2023-01-20T04:00:25.374Z,35.00
2023-01-20T04:03:26.421Z,34.40
2023-01-20T04:06:13.658Z,34.40
2023-01-20T04:09:04.039Z,37.20
2023-01-20T04:11:51.018Z,35.10
2023-01-20T04:14:38.052Z,34.50
2023-01-20T04:17:28.763Z,32.90
2023-01-20T04:20:15.672Z,33.80
2023-01-20T04:23:02.690Z,33.50
2023-01-20T04:25:49.222Z,34.40
2023-01-20T04:28:35.391Z,34.60
2023-01-20T04:31:30.697Z,34.10
2023-01-20T04:34:17.793Z,33.30
2023-01-20T04:37:04.315Z,33.20
2023-01-20T04:39:50.998Z,32.10
2023-01-20T04:42:37.631Z,32.90
2023-01-20T04:45:24.232Z,33.60
2023-01-20T04:48:10.564Z,31.00
2023-01-20T04:50:57.146Z,31.50
2023-01-20T04:53:43.556Z,27.80
2023-01-20T04:56:29.885Z,31.20
2023-01-20T04:59:16.030Z,30.50
2023-01-20T05:02:02.676Z,31.40
2023-01-20T05:04:49.253Z,32.00
2023-01-20T05:07:35.486Z,37.30
2023-01-20T05:10:21.914Z,32.10
2023-01-20T05:13:08.285Z,34.50
2023-01-20T05:15:54.767Z,31.00
2023-01-20T05:18:41.501Z,39.60
2023-01-20T05:21:28.088Z,39.20
2023-01-20T05:24:14.622Z,40.20
2023-01-20T05:27:01.763Z,38.40
2023-01-20T05:29:48.552Z,39.70
2023-01-20T05:32:35.134Z,40.20
2023-01-20T05:35:21.841Z,36.70
2023-01-20T05:38:08.069Z,39.80
2023-01-20T05:41:02.747Z,41.30
2023-01-20T05:43:48.842Z,37.00
2023-01-20T05:46:36.177Z,39.10
2023-01-20T05:49:22.547Z,37.70
2023-01-20T05:52:08.951Z,36.10
2023-01-20T05:54:55.293Z,36.10
2023-01-20T05:57:41.928Z,34.00
2023-01-20T06:00:28.014Z,30.80
2023-01-20T06:03:14.139Z,26.70
2023-01-20T06:06:02.229Z,28.50
2023-01-20T06:08:49.662Z,28.40
2023-01-20T06:11:36.179Z,26.60
2023-01-20T06:14:22.530Z,26.30
2023-01-20T06:17:09.142Z,21.90
2023-01-20T06:19:55.287Z,22.90
2023-01-20T06:22:41.784Z,21.80
2023-01-20T06:25:28.138Z,24.40
2023-01-20T06:28:14.477Z,25.20
2023-01-20T06:31:03.235Z,23.10
2023-01-20T06:33:49.740Z,21.20
2023-01-20T06:36:35.836Z,26.40
2023-01-20T06:39:22.311Z,29.10
2023-01-20T06:42:08.895Z,33.30
2023-01-20T06:44:55.178Z,30.90
2023-01-20T06:47:41.610Z,34.10
2023-01-20T06:50:28.200Z,38.30
2023-01-20T06:53:14.799Z,41.80
2023-01-20T06:56:01.839Z,40.40
2023-01-20T06:58:48.223Z,41.00
2023-01-20T07:01:34.741Z,41.60
2023-01-20T07:04:21.183Z,39.70
2023-01-20T07:07:11.352Z,37.10
2023-01-20T07:09:57.878Z,30.10
2023-01-20T07:12:44.413Z,35.80
2023-01-20T07:15:30.504Z,35.50
2023-01-20T07:18:16.450Z,32.00
2023-01-20T07:21:03.506Z,31.00
2023-01-20T07:23:50.398Z,36.10
2023-01-20T07:26:36.543Z,37.20
2023-01-20T07:29:22.856Z,36.20
2023-01-20T07:32:09.546Z,37.80
2023-01-20T07:34:56.114Z,38.90
2023-01-20T07:37:42.512Z,37.40
2023-01-20T07:40:28.573Z,48.30
2023-01-20T07:43:15.302Z,44.60
2023-01-20T07:46:03.163Z,43.40
2023-01-20T07:48:49.164Z,46.10
2023-01-20T07:51:35.223Z,52.90
2023-01-20T07:54:21.493Z,53.50
2023-01-20T07:57:08.925Z,54.80
2023-01-20T07:59:55.185Z,55.60
2023-01-20T08:02:41.797Z,60.40
2023-01-20T08:05:28.005Z,66.00
2023-01-20T08:08:14.898Z,64.80
2023-01-20T08:11:01.802Z,56.00
2023-01-20T08:13:48.591Z,49.80
2023-01-20T08:16:35.358Z,47.80
2023-01-20T08:19:21.863Z,51.60
2023-01-20T08:22:08.209Z,53.20
2023-01-20T08:24:54.716Z,52.80
2023-01-20T08:27:41.552Z,49.80
2023-01-20T08:30:27.744Z,42.40
2023-01-20T08:33:14.215Z,38.80
2023-01-20T08:36:08.793Z,41.60
2023-01-20T08:38:56.911Z,41.40
2023-01-20T08:41:44.365Z,47.30
2023-01-20T08:44:31.012Z,42.70
2023-01-20T08:47:17.382Z,39.20
2023-01-20T08:50:06.236Z,38.80
2023-01-20T08:52:52.942Z,33.00
2023-01-20T08:55:39.289Z,35.60
2023-01-20T08:58:25.954Z,29.40
2023-01-20T09:01:17.587Z,27.80
2023-01-20T09:04:06.985Z,24.50
2023-01-20T09:06:54.191Z,27.20
2023-01-20T09:09:40.979Z,28.70
2023-01-20T09:12:27.782Z,29.20
2023-01-20T09:15:14.263Z,27.70
2023-01-20T09:18:00.877Z,28.20
2023-01-20T09:20:47.337Z,27.80
2023-01-20T09:23:35.716Z,26.80
2023-01-20T09:26:35.021Z,25.60
2023-01-20T09:29:22.395Z,24.00
2023-01-20T09:32:09.065Z,20.40
2023-01-20T09:34:57.076Z,24.90
2023-01-20T09:38:01.880Z,23.90
2023-01-20T09:41:20.679Z,23.10
2023-01-20T09:44:22.349Z,20.80
2023-01-20T09:47:26.691Z,18.60
2023-01-20T09:50:46.447Z,20.50
2023-01-20T09:53:54.840Z,14.10
2023-01-20T09:56:45.780Z,18.30
2023-01-20T09:59:39.196Z,18.80
2023-01-20T10:02:28.376Z,21.30
2023-01-20T10:05:19.989Z,22.30
2023-01-20T10:08:18.262Z,22.90
2023-01-20T10:11:09.476Z,22.40
2023-01-20T10:14:13.335Z,23.80
2023-01-20T10:17:14.920Z,24.00
2023-01-20T10:20:05.688Z,26.50
2023-01-20T10:25:45.635Z,29.60
2023-01-20T10:28:37.973Z,29.70
2023-01-20T10:31:28.305Z,28.10
2023-01-20T10:34:21.074Z,29.00
2023-01-20T10:37:10.398Z,29.70
2023-01-20T10:40:04.764Z,30.80
2023-01-20T10:42:53.889Z,30.00
2023-01-20T10:46:08.060Z,29.20
2023-01-20T10:49:25.666Z,31.00
2023-01-20T10:52:53.131Z,28.60
2023-01-20T10:56:01.151Z,25.70
2023-01-20T10:58:47.854Z,25.30
2023-01-20T11:01:35.882Z,23.80
2023-01-20T11:04:22.389Z,20.60
2023-01-20T11:07:14.091Z,22.00
2023-01-20T11:10:15.400Z,22.70
2023-01-20T11:13:02.626Z,21.80
2023-01-20T11:15:57.730Z,22.10
2023-01-20T11:19:01.359Z,21.60
2023-01-20T11:21:48.481Z,25.50
2023-01-20T11:24:45.317Z,23.40
2023-01-20T11:30:28.768Z,20.50
2023-01-20T11:33:24.902Z,21.20
2023-01-20T11:36:24.116Z,20.70
2023-01-20T11:39:26.425Z,17.00
2023-01-20T11:45:24.907Z,23.50
2023-01-20T11:48:16.089Z,21.00
2023-01-20T11:51:03.311Z,15.80
2023-01-20T11:53:49.881Z,21.50
2023-01-20T11:56:42.187Z,16.70
2023-01-20T11:59:30.586Z,16.30
2023-01-20T12:02:24.882Z,13.30
2023-01-20T12:05:23.067Z,11.10
2023-01-20T12:08:58.884Z,10.40
2023-01-20T12:12:00.690Z,9.20
2023-01-20T12:15:02.439Z,14.10
2023-01-20T12:17:48.690Z,14.70
2023-01-20T12:21:02.138Z,12.30
2023-01-20T12:24:42.208Z,8.60
2023-01-20T12:27:29.280Z,7.80
2023-01-20T12:30:25.917Z,8.00
2023-01-20T12:36:21.448Z,9.00
2023-01-20T12:39:29.195Z,8.30
2023-01-20T12:42:38.454Z,10.10
2023-01-20T12:45:49.514Z,8.80
2023-01-20T12:48:44.640Z,9.30
2023-01-20T12:52:02.048Z,9.70
2023-01-20T12:54:57.967Z,9.70
2023-01-20T12:58:18.885Z,10.10
2023-01-20T13:01:11.367Z,9.70
2023-01-20T13:04:11.999Z,9.10
2023-01-20T13:07:01.265Z,9.80
2023-01-20T13:10:09.438Z,9.50
2023-01-20T13:13:12.420Z,7.70
2023-01-20T13:16:25.821Z,9.70
2023-01-20T13:19:32.302Z,10.40
2023-01-20T13:22:20.650Z,11.60
2023-01-20T13:25:14.527Z,12.10
2023-01-20T13:28:01.487Z,12.80
2023-01-20T13:30:54.312Z,11.60
2023-01-20T13:33:42.087Z,12.80
2023-01-20T13:36:28.563Z,11.50
2023-01-20T13:39:30.274Z,12.50
2023-01-20T13:42:38.311Z,11.50
2023-01-20T13:46:48.302Z,11.70
2023-01-20T13:49:51.124Z,12.00
2023-01-20T13:52:52.111Z,12.00
2023-01-20T13:55:40.087Z,11.80
2023-01-20T13:58:31.131Z,13.80
2023-01-20T14:01:16.573Z,13.20
2023-01-20T14:04:04.736Z,12.90
2023-01-20T14:06:52.351Z,12.10
2023-01-20T14:09:39.280Z,13.40
2023-01-20T14:12:25.168Z,14.20
2023-01-20T14:15:31.487Z,13.70
2023-01-20T14:18:18.823Z,13.10
2023-01-20T14:21:22.875Z,15.30
2023-01-20T14:24:35.487Z,13.60
2023-01-20T14:27:26.644Z,13.80
2023-01-20T14:30:21.142Z,13.50
2023-01-20T14:33:07.997Z,14.00
2023-01-20T14:35:53.202Z,16.10
2023-01-20T14:38:55.537Z,15.50
2023-01-20T14:41:50.738Z,15.00
2023-01-20T14:44:36.778Z,14.60
2023-01-20T14:47:23.866Z,14.40
2023-01-20T14:50:13.198Z,17.20
2023-01-20T14:52:58.510Z,15.90
2023-01-20T14:55:57.450Z,15.60
2023-01-20T14:58:47.490Z,14.50
2023-01-20T15:01:33.076Z,14.90
2023-01-20T15:04:18.143Z,13.90
2023-01-20T15:07:04.898Z,13.30
2023-01-20T15:10:02.718Z,14.80
2023-01-20T15:12:48.153Z,13.80
2023-01-20T15:15:33.477Z,14.70
2023-01-20T15:18:22.936Z,13.60
2023-01-20T15:21:21.230Z,13.70
2023-01-20T15:24:17.425Z,12.60
2023-01-20T15:27:20.717Z,13.60
2023-01-20T15:30:14.626Z,13.40
2023-01-20T15:32:59.902Z,12.20
2023-01-20T15:38:31.887Z,12.80
2023-01-20T15:41:17.519Z,13.00
2023-01-20T15:44:02.870Z,14.20
2023-01-20T15:46:48.851Z,16.30
2023-01-20T15:49:34.275Z,15.00
2023-01-20T15:55:05.381Z,13.10
2023-01-20T15:57:51.774Z,14.80
2023-01-20T16:00:37.976Z,14.70
2023-01-20T16:03:24.596Z,15.00
2023-01-20T16:06:15.660Z,12.60
2023-01-20T16:09:02.857Z,15.80
2023-01-20T16:11:48.321Z,18.40
2023-01-20T16:14:33.589Z,16.90
2023-01-20T16:17:20.657Z,15.40
2023-01-20T16:20:27.125Z,17.40
2023-01-20T16:23:12.990Z,16.10
2023-01-20T16:25:58.146Z,15.70
2023-01-20T16:31:28.471Z,16.50
2023-01-20T16:34:14.247Z,17.70
2023-01-20T16:36:59.486Z,18.00
2023-01-20T16:39:44.464Z,16.80
2023-01-20T16:42:29.386Z,16.70
2023-01-20T16:45:20.705Z,17.10
2023-01-20T16:48:08.520Z,18.80
2023-01-20T16:50:53.834Z,20.00
2023-01-20T16:53:38.720Z,21.70
2023-01-20T16:56:29.317Z,21.40
2023-01-20T16:59:14.505Z,18.50
2023-01-20T17:01:59.584Z,15.80
2023-01-20T17:04:44.688Z,18.90
2023-01-20T17:07:29.697Z,19.30
2023-01-20T17:10:15.229Z,19.50
2023-01-20T17:13:00.588Z,20.50
2023-01-20T17:15:45.679Z,20.30
2023-01-20T17:18:31.022Z,19.40
2023-01-20T17:21:16.943Z,19.90
2023-01-20T17:24:03.952Z,20.60
2023-01-20T17:26:48.873Z,20.90
2023-01-20T17:29:34.789Z,20.70
2023-01-20T17:32:20.017Z,20.30
2023-01-20T17:35:05.359Z,20.10
2023-01-20T17:37:50.473Z,23.10
2023-01-20T17:40:35.540Z,22.80
2023-01-20T17:43:20.512Z,22.10
2023-01-20T17:46:12.999Z,20.50
2023-01-20T17:49:03.997Z,18.70
2023-01-20T17:51:48.886Z,20.80
2023-01-20T17:54:34.648Z,21.10
2023-01-20T17:57:19.971Z,22.20
2023-01-20T18:00:25.326Z,21.10
2023-01-20T18:03:10.349Z,22.20
2023-01-20T18:05:57.171Z,22.10
2023-01-20T18:08:58.613Z,23.40
2023-01-20T18:11:43.937Z,22.70
2023-01-20T18:14:29.412Z,23.60
2023-01-20T18:17:14.525Z,22.50
2023-01-20T18:20:00.271Z,23.50
2023-01-20T18:22:49.750Z,23.30
2023-01-20T18:25:34.969Z,21.40
2023-01-20T18:31:09.829Z,19.60
2023-01-20T18:33:57.042Z,23.80
2023-01-20T18:36:45.279Z,24.40
2023-01-20T18:39:30.287Z,22.60
2023-01-20T18:42:15.193Z,25.70
2023-01-20T18:45:00.236Z,25.30
2023-01-20T18:47:45.249Z,23.50
2023-01-20T18:50:30.227Z,24.30
2023-01-20T18:53:15.333Z,24.20
2023-01-20T18:56:00.605Z,21.20
2023-01-20T18:58:46.621Z,22.80
2023-01-20T19:01:35.113Z,24.20
2023-01-20T19:04:20.117Z,24.90
2023-01-20T19:09:50.132Z,21.70
2023-01-20T19:12:35.233Z,22.50
2023-01-20T19:15:20.249Z,22.30
2023-01-20T19:18:05.390Z,23.40
2023-01-20T19:20:50.761Z,18.80
2023-01-20T19:23:35.606Z,20.60
2023-01-20T19:26:22.088Z,25.30
2023-01-20T19:29:11.132Z,23.90
2023-01-20T19:31:56.207Z,25.20
2023-01-20T19:34:44.371Z,22.20
2023-01-20T19:37:29.836Z,23.80
2023-01-20T19:40:16.025Z,25.60
2023-01-20T19:43:01.092Z,25.50
2023-01-20T19:45:46.403Z,23.90
2023-01-20T19:48:31.683Z,19.80
2023-01-20T19:51:18.736Z,21.00
2023-01-20T19:54:04.765Z,22.40
2023-01-20T19:56:49.623Z,23.60
2023-01-20T19:59:34.636Z,22.30
2023-01-20T20:02:19.661Z,22.00
2023-01-20T20:05:05.903Z,23.20
2023-01-20T20:07:50.904Z,24.10
2023-01-20T20:10:41.009Z,27.20
2023-01-20T20:13:26.107Z,25.90
2023-01-20T20:16:11.231Z,27.70
2023-01-20T20:18:57.035Z,27.00
2023-01-20T20:21:42.422Z,28.90
2023-01-20T20:24:27.522Z,26.60
2023-01-20T20:27:13.066Z,27.00
2023-01-20T20:30:00.661Z,28.20
2023-01-20T20:32:45.973Z,26.60
2023-01-20T20:35:34.847Z,26.20
2023-01-20T20:38:19.725Z,27.00
2023-01-20T20:41:09.642Z,25.80
2023-01-20T20:43:55.853Z,23.40
2023-01-20T20:46:40.945Z,27.30
2023-01-20T20:49:26.242Z,29.80
2023-01-20T20:52:11.074Z,29.20
2023-01-20T20:54:56.092Z,30.90
2023-01-20T20:57:40.968Z,28.70
2023-01-20T21:03:12.744Z,26.70
2023-01-20T21:05:57.989Z,25.10
2023-01-20T21:08:43.327Z,25.70
2023-01-20T21:11:28.205Z,27.60
2023-01-20T21:14:13.665Z,28.50
2023-01-20T21:16:58.832Z,25.30
2023-01-20T21:19:45.824Z,24.40
2023-01-20T21:22:31.426Z,24.20
2023-01-20T21:25:17.058Z,19.90
2023-01-20T21:28:02.377Z,20.40
2023-01-20T21:30:47.799Z,22.30
2023-01-20T21:33:32.574Z,15.80
2023-01-20T21:36:17.424Z,25.20
2023-01-20T21:39:02.513Z,22.50
2023-01-20T21:41:47.383Z,18.30
2023-01-20T21:44:33.396Z,18.90
2023-01-20T21:47:18.788Z,17.20
2023-01-20T21:50:22.325Z,15.10
2023-01-20T21:53:07.358Z,19.60
2023-01-20T21:55:52.465Z,21.50
2023-01-20T21:58:37.248Z,18.80
2023-01-20T22:04:07.180Z,17.10
2023-01-20T22:06:52.154Z,17.30
2023-01-20T22:09:37.148Z,16.60
2023-01-20T22:12:22.439Z,16.90
2023-01-20T22:15:07.834Z,19.60
2023-01-20T22:20:37.525Z,20.00
2023-01-20T22:23:22.397Z,18.60
2023-01-20T22:26:07.591Z,16.60
2023-01-20T22:28:53.007Z,20.80
2023-01-20T22:31:38.815Z,17.90
2023-01-20T22:34:23.882Z,19.90
2023-01-20T22:37:09.056Z,17.20
2023-01-20T22:39:53.998Z,16.40
2023-01-20T22:42:38.730Z,10.60
2023-01-20T22:45:23.796Z,11.50
2023-01-20T22:48:08.629Z,14.50
2023-01-20T22:50:54.619Z,17.10
2023-01-20T22:53:40.293Z,14.60
2023-01-20T22:56:31.240Z,16.10
2023-01-20T22:59:16.049Z,18.30
2023-01-20T23:04:46.411Z,12.90
2023-01-20T23:07:31.239Z,13.50
2023-01-20T23:13:22.067Z,11.50
2023-01-20T23:16:10.282Z,8.20
2023-01-20T23:18:55.282Z,14.10
2023-01-20T23:21:40.310Z,8.70
2023-01-20T23:24:25.538Z,15.10
2023-01-20T23:27:10.939Z,8.40
2023-01-20T23:29:56.260Z,15.10
2023-01-20T23:32:41.079Z,14.10
2023-01-20T23:35:25.973Z,10.50
2023-01-20T23:38:11.045Z,8.70
2023-01-20T23:40:56.125Z,11.20
2023-01-20T23:43:41.559Z,9.40
2023-01-20T23:46:26.331Z,16.80
2023-01-20T23:49:11.441Z,14.40
2023-01-20T23:51:56.231Z,17.40
2023-01-20T23:54:41.342Z,11.30
2023-01-20T23:57:26.604Z,11.60
